Terminal Aerodrome Forecast
Issued by NWS Spokane, WA

Home | Current Version | Previous Version | Text Only | Print | Product List | Glossary On
Versions: 1 2 3 4 5 6 7 8 9 10 11 12 13
000
FTUS46 KOTX 042320
TAFEAT
TAF
KEAT 042320Z 0500/0524 10005KT P6SM VCSH FEW070 BKN100
     FM050200 30012KT P6SM SCT070 SCT100
     FM050600 31011KT P6SM TSRA BKN070CB BKN100 BKN200
     FM050900 33008KT P6SM -SHRA BKN080 BKN100
     FM051600 29010KT P6SM VCSH BKN080 BKN100=

USA.gov is the U.S. government's official web portal to all federal, state and local government web resources and services.